Time;durP1;ratioP1;P1;durP2;ratioP2;P2;SDS_P1;SDS_P2;PMS_P1;PMS_P2;Temp;Humidity;BMP_temperature;BMP_pressure;BME280_temperature;BME280_humidity;BME280_pressure;Samples;Min_cycle;Max_cycle;Signal;HPM_P1;HPM_P2
2021/08/29 00:01:35;;;;;;;7.27;3.63;;;17.50;89.40;;;;;;5053093;28;20468;-67
2021/08/29 00:04:02;;;;;;;5.70;3.67;;;17.40;89.40;;;;;;5056638;28;20946;-67
2021/08/29 00:06:28;;;;;;;4.27;3.63;;;17.50;89.60;;;;;;5057217;28;20844;-67
2021/08/29 00:08:55;;;;;;;6.23;4.03;;;17.50;89.20;;;;;;5056845;28;20939;-67
2021/08/29 00:11:23;;;;;;;6.20;3.90;;;17.40;89.50;;;;;;5056710;28;20473;-67
2021/08/29 00:13:50;;;;;;;4.50;3.70;;;17.40;89.70;;;;;;5057054;28;20437;-67
2021/08/29 00:16:17;;;;;;;7.27;4.63;;;17.40;89.70;;;;;;5057040;28;20446;-67
2021/08/29 00:18:43;;;;;;;6.77;3.97;;;17.40;89.80;;;;;;5056923;28;20531;-67
2021/08/29 00:21:10;;;;;;;6.57;4.07;;;17.40;89.80;;;;;;5056881;28;20469;-67
2021/08/29 00:23:37;;;;;;;7.70;5.03;;;17.30;89.40;;;;;;5056954;28;20445;-67
2021/08/29 00:26:04;;;;;;;5.27;4.00;;;17.30;89.60;;;;;;5056623;28;20795;-67
2021/08/29 00:28:32;;;;;;;6.63;4.00;;;17.30;89.60;;;;;;5056793;28;20457;-67
2021/08/29 00:30:58;;;;;;;6.50;4.23;;;17.20;90.00;;;;;;5056712;28;20468;-67
2021/08/29 00:33:25;;;;;;;7.43;4.03;;;17.20;90.00;;;;;;5056710;28;20452;-67
2021/08/29 00:35:52;;;;;;;7.00;4.20;;;17.20;90.10;;;;;;5056686;28;20449;-67
2021/08/29 00:38:19;;;;;;;4.73;3.90;;;17.20;90.20;;;;;;5056562;28;20503;-67
2021/08/29 00:40:47;;;;;;;10.10;4.10;;;17.20;90.20;;;;;;5056476;28;20472;-67
2021/08/29 00:43:14;;;;;;;7.63;4.60;;;17.20;90.30;;;;;;5056247;28;20450;-67
2021/08/29 00:45:42;;;;;;;6.27;5.07;;;17.20;90.20;;;;;;5056504;28;20430;-67
2021/08/29 00:48:11;;;;;;;7.37;4.37;;;17.20;90.20;;;;;;5056118;28;20943;-67
2021/08/29 00:50:39;;;;;;;5.37;4.30;;;17.20;90.30;;;;;;5056304;28;20469;-67
2021/08/29 00:53:07;;;;;;;5.83;4.27;;;17.20;90.30;;;;;;5056360;28;20445;-67
2021/08/29 00:55:35;;;;;;;6.80;4.40;;;17.10;90.40;;;;;;5056311;28;20441;-67
2021/08/29 00:58:01;;;;;;;5.70;4.77;;;17.20;90.40;;;;;;5056156;28;20480;-67
2021/08/29 01:00:28;;;;;;;7.30;4.30;;;17.10;90.40;;;;;;5056083;28;20519;-67
2021/08/29 01:02:59;;;;;;;5.63;4.27;;;17.10;90.40;;;;;;5056129;28;20449;-67
2021/08/29 01:05:30;;;;;;;7.43;4.40;;;17.10;90.50;;;;;;5056174;28;20430;-67
2021/08/29 01:08:01;;;;;;;6.30;4.97;;;17.10;90.50;;;;;;5056116;28;20426;-67
2021/08/29 01:10:32;;;;;;;7.40;4.00;;;17.10;90.60;;;;;;5055744;28;20485;-67
2021/08/29 01:13:00;;;;;;;4.67;4.20;;;17.10;90.60;;;;;;5055749;28;20430;-67
2021/08/29 01:15:29;;;;;;;6.63;3.83;;;17.10;90.60;;;;;;5055940;28;20438;-67
2021/08/29 01:18:01;;;;;;;6.33;4.67;;;17.10;90.50;;;;;;5055836;28;20489;-67
2021/08/29 01:20:37;;;;;;;8.50;4.23;;;17.10;90.50;;;;;;5055845;28;20830;-67
2021/08/29 01:23:07;;;;;;;6.00;4.53;;;17.10;90.50;;;;;;5055865;28;20425;-67
2021/08/29 01:25:36;;;;;;;7.63;4.17;;;17.20;90.60;;;;;;5055679;28;20442;-67
2021/08/29 01:28:10;;;;;;;7.30;4.00;;;17.20;90.60;;;;;;5055737;28;20441;-67
2021/08/29 01:30:38;;;;;;;9.67;4.50;;;17.20;90.60;;;;;;5055615;28;20465;-67
2021/08/29 01:33:07;;;;;;;6.83;4.50;;;17.10;90.50;;;;;;5055633;28;20453;-67
2021/08/29 01:35:34;;;;;;;7.90;4.80;;;17.10;90.70;;;;;;5055563;28;20456;-67
2021/08/29 01:38:02;;;;;;;10.13;4.63;;;17.10;90.70;;;;;;5055450;28;20488;-67
2021/08/29 01:40:30;;;;;;;7.07;4.27;;;17.10;90.70;;;;;;5055381;28;20462;-67
2021/08/29 01:42:58;;;;;;;5.77;4.70;;;17.10;90.70;;;;;;5055408;28;20445;-67
2021/08/29 01:45:25;;;;;;;6.90;4.37;;;17.10;90.70;;;;;;5055370;28;20455;-67
2021/08/29 01:47:55;;;;;;;7.10;5.47;;;17.10;90.80;;;;;;5055368;28;20815;-67
2021/08/29 01:50:23;;;;;;;5.93;4.33;;;17.10;90.90;;;;;;5055277;28;20470;-67
2021/08/29 01:52:49;;;;;;;7.23;4.53;;;17.10;90.90;;;;;;5055194;28;20441;-67
2021/08/29 01:55:16;;;;;;;5.67;4.20;;;17.10;91.00;;;;;;5054879;28;20449;-67
2021/08/29 01:57:43;;;;;;;6.10;4.10;;;17.00;91.10;;;;;;5055085;28;20476;-67
2021/08/29 02:00:11;;;;;;;7.23;4.77;;;17.00;91.20;;;;;;5055040;28;20465;-67
2021/08/29 02:02:37;;;;;;;8.47;4.40;;;17.00;91.20;;;;;;5055043;28;20445;-67
2021/08/29 02:05:06;;;;;;;8.77;5.23;;;17.00;91.10;;;;;;5055042;28;20467;-67
2021/08/29 02:07:36;;;;;;;7.10;4.67;;;17.00;91.10;;;;;;5054968;28;20520;-67
2021/08/29 02:10:07;;;;;;;6.13;4.77;;;17.00;91.20;;;;;;5054450;28;20972;-67
2021/08/29 02:12:38;;;;;;;5.33;4.30;;;17.00;91.20;;;;;;5054914;28;20429;-67
2021/08/29 02:15:08;;;;;;;5.97;4.23;;;17.00;91.20;;;;;;5054570;28;20830;-67
2021/08/29 02:17:36;;;;;;;7.23;5.10;;;17.00;91.20;;;;;;5054429;28;20426;-67
2021/08/29 02:20:09;;;;;;;8.53;4.93;;;17.00;91.20;;;;;;5054704;28;20466;-67
2021/08/29 02:22:36;;;;;;;7.30;5.00;;;17.00;91.10;;;;;;5054377;28;20962;-67
2021/08/29 02:25:04;;;;;;;7.33;4.67;;;17.00;91.30;;;;;;5053940;28;20446;-67
2021/08/29 02:27:31;;;;;;;4.90;4.50;;;17.00;91.40;;;;;;5054551;28;20445;-67
2021/08/29 02:30:00;;;;;;;9.83;5.40;;;17.00;91.40;;;;;;5054475;28;20441;-67
2021/08/29 02:32:27;;;;;;;11.20;5.30;;;17.00;91.40;;;;;;5054505;28;20453;-67
2021/08/29 02:34:54;;;;;;;10.30;4.60;;;17.00;91.40;;;;;;5054463;28;20468;-67
2021/08/29 02:37:23;;;;;;;4.90;4.43;;;17.00;91.40;;;;;;5054145;28;20441;-66
2021/08/29 02:39:51;;;;;;;8.17;4.87;;;17.00;91.40;;;;;;5054172;28;20481;-67
2021/08/29 02:42:19;;;;;;;8.50;4.40;;;17.00;91.40;;;;;;5054292;28;20441;-67
2021/08/29 02:44:46;;;;;;;6.57;4.63;;;17.00;91.40;;;;;;5053998;28;20450;-67
2021/08/29 02:47:13;;;;;;;9.47;5.50;;;17.00;91.30;;;;;;5054225;28;20446;-67
2021/08/29 02:49:41;;;;;;;10.17;6.20;;;17.00;91.30;;;;;;5054186;28;20441;-68
2021/08/29 02:52:08;;;;;;;6.93;4.67;;;17.00;91.30;;;;;;5054128;28;20446;-66
2021/08/29 02:54:41;;;;;;;7.33;5.97;;;17.00;91.40;;;;;;5054037;28;20468;-67
2021/08/29 02:57:11;;;;;;;9.17;5.37;;;16.90;91.40;;;;;;5054050;28;20473;-67
2021/08/29 02:59:39;;;;;;;12.30;5.20;;;16.90;91.50;;;;;;5053956;28;20474;-67
2021/08/29 03:02:07;;;;;;;8.83;5.33;;;16.90;91.60;;;;;;5053941;28;20441;-67
2021/08/29 03:04:34;;;;;;;5.57;5.03;;;16.90;91.70;;;;;;5053911;28;20441;-67
2021/08/29 03:07:01;;;;;;;10.40;4.80;;;16.80;91.70;;;;;;5053820;28;20450;-67
2021/08/29 03:09:33;;;;;;;8.67;5.37;;;16.90;91.80;;;;;;5053505;28;20940;-67
2021/08/29 03:12:02;;;;;;;7.20;5.20;;;16.90;91.90;;;;;;5053330;28;20984;-67
2021/08/29 03:14:28;;;;;;;9.97;5.23;;;16.90;91.90;;;;;;5053405;28;20450;-67
2021/08/29 03:16:55;;;;;;;8.20;6.00;;;16.90;91.90;;;;;;5053725;28;20445;-67
2021/08/29 03:19:22;;;;;;;12.10;5.87;;;16.90;92.30;;;;;;5053572;28;20481;-67
2021/08/29 03:21:49;;;;;;;10.00;5.20;;;16.90;91.90;;;;;;5053544;28;20465;-67
2021/08/29 03:24:17;;;;;;;7.83;5.33;;;16.80;92.10;;;;;;5053539;28;20450;-67
2021/08/29 03:26:44;;;;;;;5.37;4.87;;;16.90;92.20;;;;;;5053539;28;20446;-67
2021/08/29 03:29:12;;;;;;;7.80;5.20;;;16.80;92.10;;;;;;5053212;28;20485;-67
2021/08/29 03:31:39;;;;;;;5.63;4.90;;;16.90;92.10;;;;;;5053394;28;20465;-67
2021/08/29 03:34:07;;;;;;;7.70;4.63;;;16.80;92.10;;;;;;5053414;28;20454;-67
2021/08/29 03:36:35;;;;;;;10.50;5.53;;;16.90;92.20;;;;;;5053409;28;20457;-67
2021/08/29 03:39:03;;;;;;;8.23;5.20;;;16.80;92.20;;;;;;5053344;28;20844;-67
2021/08/29 03:41:30;;;;;;;11.70;5.47;;;16.80;92.20;;;;;;5054144;28;20531;-67
2021/08/29 03:43:58;;;;;;;8.23;4.90;;;16.80;92.20;;;;;;5053396;28;20449;-67
2021/08/29 03:46:26;;;;;;;8.67;5.27;;;16.90;92.40;;;;;;5053300;28;20441;-67
2021/08/29 03:48:54;;;;;;;8.90;4.73;;;16.80;92.30;;;;;;5053319;28;20450;-67
2021/08/29 03:51:21;;;;;;;10.93;5.10;;;16.90;92.40;;;;;;5053280;28;20466;-68
2021/08/29 03:53:50;;;;;;;8.97;4.90;;;16.90;92.40;;;;;;5053382;28;20448;-67
2021/08/29 03:56:17;;;;;;;9.13;4.90;;;16.90;92.50;;;;;;5053256;28;20452;-67
2021/08/29 03:58:44;;;;;;;10.10;5.67;;;16.90;92.50;;;;;;5052904;28;20461;-67
2021/08/29 04:01:11;;;;;;;6.57;4.60;;;16.90;92.50;;;;;;5052841;28;20472;-67
2021/08/29 04:03:40;;;;;;;9.23;5.27;;;16.90;92.40;;;;;;5053168;28;20855;-67
2021/08/29 04:06:08;;;;;;;12.07;5.60;;;16.90;92.40;;;;;;5053117;28;20453;-67
2021/08/29 04:08:37;;;;;;;15.07;6.70;;;16.90;92.50;;;;;;5053171;28;20442;-67
2021/08/29 04:11:07;;;;;;;7.50;5.10;;;16.90;92.50;;;;;;5052928;28;20833;-67
2021/08/29 04:13:34;;;;;;;7.30;5.17;;;16.90;92.60;;;;;;5053129;28;20795;-67
2021/08/29 04:16:03;;;;;;;9.40;5.60;;;16.90;92.70;;;;;;5053098;28;20441;-67
2021/08/29 04:18:36;;;;;;;10.37;5.13;;;16.90;92.70;;;;;;5052991;28;20485;-67
2021/08/29 04:21:05;;;;;;;7.60;5.00;;;16.90;92.70;;;;;;5053002;28;20500;-67
2021/08/29 04:23:32;;;;;;;6.37;4.70;;;16.90;92.70;;;;;;5052973;28;20446;-67
2021/08/29 04:25:59;;;;;;;9.37;5.53;;;16.90;92.70;;;;;;5052963;28;20453;-67
2021/08/29 04:28:27;;;;;;;8.57;5.10;;;16.90;92.70;;;;;;5052930;28;20445;-67
2021/08/29 04:30:58;;;;;;;6.90;4.70;;;16.90;92.70;;;;;;5052826;28;20465;-67
2021/08/29 04:33:26;;;;;;;9.80;4.73;;;16.90;92.60;;;;;;5052914;28;20445;-67
2021/08/29 04:35:53;;;;;;;10.77;6.30;;;16.90;92.60;;;;;;5052788;28;21015;-67
2021/08/29 04:38:21;;;;;;;7.50;5.47;;;16.90;92.70;;;;;;5052788;28;20819;-67
2021/08/29 04:40:48;;;;;;;11.70;5.70;;;16.90;92.80;;;;;;5052782;28;20461;-67
2021/08/29 04:43:15;;;;;;;7.27;5.30;;;16.90;92.90;;;;;;5052818;28;20813;-67
2021/08/29 04:45:41;;;;;;;10.67;4.67;;;16.90;93.00;;;;;;5052815;28;20452;-67
2021/08/29 04:48:08;;;;;;;8.73;5.30;;;16.80;93.20;;;;;;5053294;28;20936;-67
2021/08/29 04:50:35;;;;;;;11.80;6.23;;;16.80;93.20;;;;;;5056361;28;20488;-67
2021/08/29 04:53:01;;;;;;;9.93;5.30;;;16.80;93.20;;;;;;5056397;28;20452;-67
2021/08/29 04:55:30;;;;;;;10.70;5.33;;;16.80;93.10;;;;;;5056413;28;20827;-67
2021/08/29 04:57:57;;;;;;;10.73;6.00;;;16.80;93.20;;;;;;5056311;28;20450;-67
2021/08/29 05:00:24;;;;;;;9.43;5.00;;;16.90;93.20;;;;;;5055867;28;20481;-67
2021/08/29 05:02:50;;;;;;;11.90;5.70;;;16.90;93.30;;;;;;5056199;28;20452;-67
2021/08/29 05:05:17;;;;;;;8.50;5.03;;;16.90;93.20;;;;;;5056143;28;20449;-67
2021/08/29 05:07:45;;;;;;;11.83;5.40;;;16.90;93.60;;;;;;5055817;28;20445;-67
2021/08/29 05:10:12;;;;;;;9.40;4.60;;;16.90;93.10;;;;;;5055794;28;20470;-67
2021/08/29 05:12:40;;;;;;;9.40;5.40;;;16.90;93.10;;;;;;5056117;28;20487;-67
2021/08/29 05:15:07;;;;;;;9.77;5.63;;;16.90;93.20;;;;;;5055987;28;20442;-67
2021/08/29 05:17:34;;;;;;;8.07;5.43;;;16.90;93.10;;;;;;5055929;28;20449;-67
2021/08/29 05:20:01;;;;;;;11.93;6.33;;;17.00;93.20;;;;;;5055454;28;20484;-67
2021/08/29 05:22:28;;;;;;;10.23;5.07;;;17.00;93.20;;;;;;5055841;28;20441;-67
2021/08/29 05:24:54;;;;;;;7.70;5.07;;;17.00;93.20;;;;;;5055823;28;20453;-67
2021/08/29 05:27:21;;;;;;;8.60;4.73;;;17.00;93.10;;;;;;5055723;28;20441;-67
2021/08/29 05:29:49;;;;;;;9.27;5.43;;;17.00;93.10;;;;;;5055383;28;20953;-68
2021/08/29 05:32:16;;;;;;;7.17;5.10;;;17.00;93.00;;;;;;5055604;28;20472;-67
2021/08/29 05:34:42;;;;;;;13.60;5.37;;;17.00;93.20;;;;;;5055363;28;20904;-67
2021/08/29 05:37:09;;;;;;;9.40;5.20;;;17.00;93.10;;;;;;5055462;28;20487;-67
2021/08/29 05:39:36;;;;;;;10.80;5.17;;;17.10;93.10;;;;;;5055357;28;20485;-67
2021/08/29 05:42:03;;;;;;;9.37;4.83;;;17.00;93.10;;;;;;5055350;28;20488;-67
2021/08/29 05:44:29;;;;;;;10.37;5.53;;;17.10;93.10;;;;;;5055100;28;20448;-67
2021/08/29 05:46:57;;;;;;;10.80;6.07;;;17.10;93.20;;;;;;5055426;28;20440;-67
2021/08/29 05:49:24;;;;;;;5.80;4.60;;;17.10;93.10;;;;;;5055094;28;20495;-67
2021/08/29 05:51:51;;;;;;;9.70;5.07;;;17.10;93.00;;;;;;5054947;28;20461;-67
2021/08/29 05:54:18;;;;;;;12.23;5.67;;;17.20;93.00;;;;;;5055006;28;20449;-67
2021/08/29 05:56:45;;;;;;;10.23;5.20;;;17.20;93.10;;;;;;5055185;28;20445;-67
2021/08/29 05:59:12;;;;;;;13.20;4.97;;;17.20;93.00;;;;;;5054779;28;20492;-67
2021/08/29 06:01:39;;;;;;;10.60;4.93;;;17.30;92.90;;;;;;5054373;28;20462;-67
2021/08/29 06:04:07;;;;;;;6.77;4.43;;;17.30;92.80;;;;;;5055124;28;20442;-67
2021/08/29 06:06:34;;;;;;;9.87;4.80;;;17.40;92.80;;;;;;5055013;28;20441;-67
2021/08/29 06:09:00;;;;;;;13.70;5.87;;;17.40;92.50;;;;;;5054959;28;20446;-67
2021/08/29 06:11:27;;;;;;;9.23;5.20;;;17.50;92.40;;;;;;5054517;28;20497;-67
2021/08/29 06:13:56;;;;;;;10.30;5.73;;;17.60;92.40;;;;;;5054975;28;20809;-67
2021/08/29 06:16:23;;;;;;;10.80;5.03;;;17.60;92.30;;;;;;5054705;28;20460;-69
2021/08/29 06:18:49;;;;;;;7.63;4.80;;;17.60;92.20;;;;;;5054314;28;20803;-67
2021/08/29 06:21:18;;;;;;;16.23;6.20;;;17.60;91.90;;;;;;5054242;28;20468;-67
2021/08/29 06:23:45;;;;;;;13.70;4.83;;;17.60;91.90;;;;;;5054749;28;20441;-67
2021/08/29 06:26:11;;;;;;;10.57;4.70;;;17.60;91.90;;;;;;5054556;28;20450;-67
2021/08/29 06:28:38;;;;;;;5.60;4.83;;;17.60;92.00;;;;;;5054486;28;20445;-67
2021/08/29 06:31:05;;;;;;;8.93;5.47;;;17.60;92.10;;;;;;5054442;28;20469;-67
2021/08/29 06:33:32;;;;;;;9.10;4.87;;;17.60;92.20;;;;;;5054444;28;20456;-67
2021/08/29 06:35:58;;;;;;;12.13;5.13;;;17.50;92.10;;;;;;5055215;28;20450;-67
2021/08/29 06:38:26;;;;;;;9.77;5.23;;;17.60;92.30;;;;;;5054349;28;20446;-66
2021/08/29 06:40:53;;;;;;;12.33;5.30;;;17.60;92.40;;;;;;5053877;28;20832;-67
2021/08/29 06:43:20;;;;;;;8.10;4.70;;;17.60;92.50;;;;;;5054305;28;20442;-67
2021/08/29 06:45:47;;;;;;;10.30;5.50;;;17.60;92.50;;;;;;5054307;28;20450;-67
2021/08/29 06:48:13;;;;;;;10.03;5.70;;;17.70;92.50;;;;;;5054237;28;20802;-67
2021/08/29 06:50:40;;;;;;;8.10;4.90;;;17.70;92.30;;;;;;5054099;28;20476;-67
2021/08/29 06:53:07;;;;;;;14.97;5.13;;;17.70;92.20;;;;;;5053880;28;20446;-67
2021/08/29 06:55:35;;;;;;;12.60;5.60;;;17.80;92.00;;;;;;5054174;28;20425;-67
2021/08/29 06:58:02;;;;;;;9.80;5.90;;;17.80;92.00;;;;;;5054003;28;20529;-67
2021/08/29 07:00:28;;;;;;;10.23;5.63;;;17.90;92.00;;;;;;5053545;28;20840;-67
2021/08/29 07:02:55;;;;;;;10.97;5.33;;;17.90;91.80;;;;;;5053910;28;20445;-67
2021/08/29 07:05:22;;;;;;;12.03;5.97;;;17.90;91.60;;;;;;5054241;28;20776;-66
2021/08/29 07:07:48;;;;;;;10.07;5.37;;;17.90;91.60;;;;;;5053919;28;20460;-67
2021/08/29 07:10:15;;;;;;;8.10;6.37;;;17.90;91.40;;;;;;5053406;28;20476;-68
2021/08/29 07:12:43;;;;;;;10.10;5.40;;;17.90;91.40;;;;;;5053570;28;20452;-67
2021/08/29 07:15:10;;;;;;;12.07;6.37;;;17.90;91.50;;;;;;5053487;28;20957;-67
2021/08/29 07:17:37;;;;;;;12.90;6.50;;;17.90;91.60;;;;;;5053663;28;20503;-67
2021/08/29 07:20:05;;;;;;;10.43;6.00;;;18.00;91.80;;;;;;5053563;28;20482;-68
2021/08/29 07:22:31;;;;;;;10.70;6.50;;;18.00;91.70;;;;;;5053599;28;20445;-67
2021/08/29 07:24:58;;;;;;;9.07;6.00;;;18.10;91.70;;;;;;5053269;28;20935;-68
2021/08/29 07:27:25;;;;;;;8.93;6.40;;;18.10;91.60;;;;;;5054330;28;20468;-67
2021/08/29 07:29:53;;;;;;;12.03;6.70;;;18.20;91.50;;;;;;5053438;28;20453;-69
2021/08/29 07:32:20;;;;;;;9.17;6.80;;;18.20;91.20;;;;;;5053447;28;20453;-67
2021/08/29 07:34:47;;;;;;;11.40;6.60;;;18.30;91.20;;;;;;5053544;28;20441;-68
2021/08/29 07:37:14;;;;;;;12.50;6.43;;;18.30;91.10;;;;;;5053462;28;20445;-68
2021/08/29 07:39:41;;;;;;;10.63;7.30;;;18.40;91.10;;;;;;5053920;28;20470;-67
2021/08/29 07:42:08;;;;;;;11.67;7.27;;;18.50;91.10;;;;;;5053066;28;20477;-67
2021/08/29 07:44:34;;;;;;;11.23;6.93;;;18.50;91.00;;;;;;5053430;28;20475;-67
2021/08/29 07:47:03;;;;;;;10.43;6.33;;;18.60;90.80;;;;;;5053371;28;20438;-67
2021/08/29 07:49:29;;;;;;;11.57;6.37;;;18.70;90.60;;;;;;5054018;28;20457;-68
2021/08/29 07:51:56;;;;;;;11.57;6.13;;;18.80;90.30;;;;;;5053304;28;20520;-68
2021/08/29 07:54:23;;;;;;;11.80;6.63;;;18.70;90.00;;;;;;5052998;28;20449;-67
2021/08/29 07:56:50;;;;;;;10.20;5.90;;;18.70;90.00;;;;;;5053412;28;20441;-67
2021/08/29 07:59:16;;;;;;;9.47;5.10;;;18.70;89.60;;;;;;5053173;28;20506;-67
2021/08/29 08:01:43;;;;;;;7.60;5.30;;;18.60;89.80;;;;;;5053155;28;20461;-68
2021/08/29 08:04:11;;;;;;;8.40;5.07;;;18.50;90.00;;;;;;5053307;28;20453;-67
2021/08/29 08:06:38;;;;;;;13.77;5.77;;;18.50;90.20;;;;;;5053161;28;20430;-67
2021/08/29 08:09:05;;;;;;;7.80;5.43;;;18.40;90.30;;;;;;5052820;28;20955;-67
2021/08/29 08:11:31;;;;;;;8.43;4.97;;;18.40;90.20;;;;;;5052555;28;20983;-67
2021/08/29 08:13:58;;;;;;;8.80;5.13;;;18.40;90.20;;;;;;5053066;28;20445;-67
2021/08/29 08:16:25;;;;;;;8.10;5.00;;;18.40;90.30;;;;;;5053024;28;20449;-67
2021/08/29 08:18:51;;;;;;;11.80;4.97;;;18.40;90.00;;;;;;5052707;28;20450;-67
2021/08/29 08:21:20;;;;;;;9.53;4.70;;;18.30;90.20;;;;;;5052848;28;20519;-67
2021/08/29 08:23:47;;;;;;;12.90;4.80;;;18.30;90.20;;;;;;5054332;28;20942;-68
2021/08/29 08:26:14;;;;;;;12.20;4.37;;;18.30;90.30;;;;;;5056643;28;20452;-68
2021/08/29 08:28:40;;;;;;;5.33;4.60;;;18.30;90.40;;;;;;5056845;28;20449;-67
2021/08/29 08:31:07;;;;;;;7.70;4.57;;;18.30;90.50;;;;;;5056792;28;20541;-67
2021/08/29 08:33:34;;;;;;;10.63;5.80;;;18.30;90.60;;;;;;5056767;28;20441;-67
2021/08/29 08:36:00;;;;;;;11.13;4.90;;;18.20;90.80;;;;;;5056733;28;20446;-67
2021/08/29 08:38:28;;;;;;;8.77;4.90;;;18.20;91.50;;;;;;5056395;28;20809;-67
2021/08/29 08:40:55;;;;;;;9.97;5.70;;;18.30;91.30;;;;;;5056574;28;20485;-67
2021/08/29 08:43:22;;;;;;;9.13;5.43;;;18.20;91.20;;;;;;5056591;28;20456;-67
2021/08/29 08:45:49;;;;;;;8.33;4.97;;;18.20;91.80;;;;;;5056329;28;20449;-67
2021/08/29 08:48:20;;;;;;;14.33;5.93;;;18.20;91.50;;;;;;5056510;28;20452;-67
2021/08/29 08:50:50;;;;;;;10.73;5.60;;;18.20;91.60;;;;;;5056412;28;20458;-69
2021/08/29 08:53:19;;;;;;;9.60;5.70;;;18.30;91.70;;;;;;5056275;28;20473;-69
2021/08/29 08:56:32;;;;;;;11.53;6.13;;;18.30;91.50;;;;;;5056380;28;20472;-69
2021/08/29 08:59:26;;;;;;;10.23;5.27;;;18.40;91.30;;;;;;5055472;28;20444;-69
2021/08/29 09:01:53;;;;;;;9.47;5.10;;;18.30;91.10;;;;;;5055809;28;20517;-75
2021/08/29 09:04:20;;;;;;;8.13;4.77;;;18.20;91.10;;;;;;5055862;28;21012;-75
2021/08/29 09:06:46;;;;;;;9.37;5.33;;;18.20;91.80;;;;;;5056074;28;20429;-76
2021/08/29 09:09:13;;;;;;;9.20;5.27;;;18.20;91.90;;;;;;5056252;28;20445;-69
2021/08/29 09:11:41;;;;;;;8.10;4.83;;;18.20;91.70;;;;;;5055671;28;20531;-69
2021/08/29 09:14:08;;;;;;;8.23;4.03;;;18.30;91.80;;;;;;5055694;28;20426;-69
2021/08/29 09:16:35;;;;;;;7.60;4.43;;;18.30;91.70;;;;;;5055925;28;20450;-69
2021/08/29 09:19:04;;;;;;;10.30;4.70;;;18.40;91.40;;;;;;5055823;28;20582;-69
2021/08/29 09:21:32;;;;;;;5.50;3.77;;;18.40;91.10;;;;;;5055528;28;20508;-69
2021/08/29 09:24:02;;;;;;;5.10;4.23;;;18.50;91.40;;;;;;5055832;28;20432;-71
2021/08/29 09:26:30;;;;;;;10.20;5.20;;;18.60;91.30;;;;;;5055804;28;20426;-69
2021/08/29 09:28:59;;;;;;;8.33;4.30;;;18.60;91.30;;;;;;5055716;28;20437;-69
2021/08/29 09:31:43;;;;;;;5.90;4.30;;;18.80;91.20;;;;;;5055135;28;21026;-69
2021/08/29 09:34:09;;;;;;;6.43;3.80;;;18.80;91.00;;;;;;5055520;28;20484;-69
2021/08/29 09:36:38;;;;;;;10.80;4.10;;;19.00;91.00;;;;;;5055474;28;20501;-69
2021/08/29 09:39:13;;;;;;;9.43;5.00;;;19.10;90.90;;;;;;5055333;28;20503;-69
2021/08/29 09:41:40;;;;;;;11.07;4.47;;;19.20;91.00;;;;;;5055078;28;21005;-69
2021/08/29 09:44:13;;;;;;;7.67;4.67;;;19.10;90.90;;;;;;5055460;28;20525;-69
2021/08/29 09:46:53;;;;;;;8.93;5.60;;;19.10;90.80;;;;;;5055177;28;20919;-69
2021/08/29 09:49:25;;;;;;;6.20;4.23;;;19.00;90.60;;;;;;5055897;28;20429;-69
2021/08/29 09:51:52;;;;;;;7.53;5.00;;;18.80;90.80;;;;;;5055242;28;20469;-69
2021/08/29 09:54:30;;;;;;;5.60;4.30;;;18.90;91.40;;;;;;5055294;28;20982;-69
2021/08/29 09:56:56;;;;;;;4.03;3.10;;;19.00;91.60;;;;;;5055101;28;20457;-69
2021/08/29 09:59:41;;;;;;;6.33;3.03;;;19.10;91.40;;;;;;5055172;28;20452;-69
2021/08/29 10:02:08;;;;;;;7.13;4.43;;;19.10;91.40;;;;;;5055033;28;20508;-69
2021/08/29 10:04:35;;;;;;;4.97;3.13;;;19.20;90.90;;;;;;5055104;28;20433;-69
2021/08/29 10:07:16;;;;;;;8.87;4.43;;;19.10;90.80;;;;;;5055068;28;20446;-69
2021/08/29 10:09:45;;;;;;;8.97;4.23;;;19.10;91.10;;;;;;5054418;28;20447;-69
2021/08/29 10:12:12;;;;;;;6.70;4.00;;;19.00;91.10;;;;;;5054379;28;20450;-69
2021/08/29 10:14:42;;;;;;;6.10;3.60;;;19.00;91.10;;;;;;5054640;28;20453;-69
2021/08/29 10:17:10;;;;;;;9.37;4.23;;;19.00;91.30;;;;;;5054724;28;20452;-69
2021/08/29 10:19:39;;;;;;;7.60;4.10;;;18.90;91.20;;;;;;5054518;28;20585;-69
2021/08/29 10:22:06;;;;;;;8.30;4.47;;;18.90;91.30;;;;;;5054486;28;20477;-69
2021/08/29 10:24:34;;;;;;;6.60;3.90;;;18.80;91.40;;;;;;5054189;28;20441;-69
2021/08/29 10:27:05;;;;;;;5.50;3.50;;;18.80;91.50;;;;;;5054381;28;20469;-69
2021/08/29 10:29:39;;;;;;;4.47;2.23;;;18.80;91.60;;;;;;5054411;28;20437;-69
2021/08/29 10:32:20;;;;;;;5.90;3.10;;;18.80;91.40;;;;;;5054493;28;20469;-69
2021/08/29 10:34:47;;;;;;;6.33;3.33;;;18.80;91.30;;;;;;5054517;28;20830;-69
2021/08/29 10:37:14;;;;;;;6.43;4.03;;;18.70;91.30;;;;;;5054518;28;20434;-69
2021/08/29 10:39:41;;;;;;;9.47;3.80;;;18.70;91.50;;;;;;5054232;28;20449;-69
2021/08/29 10:42:11;;;;;;;6.93;4.10;;;18.70;91.70;;;;;;5053926;28;20984;-69
2021/08/29 10:44:39;;;;;;;10.10;4.00;;;18.70;91.90;;;;;;5053727;28;20797;-69
2021/08/29 10:47:07;;;;;;;5.80;3.20;;;18.60;92.10;;;;;;5053427;28;20944;-69
2021/08/29 10:49:36;;;;;;;4.80;3.20;;;18.70;92.20;;;;;;5054190;28;20625;-69
2021/08/29 10:52:05;;;;;;;3.83;2.53;;;18.70;92.30;;;;;;5054023;28;20472;-69
2021/08/29 10:54:31;;;;;;;2.90;2.33;;;18.70;92.10;;;;;;5053738;28;20426;-70
2021/08/29 10:56:58;;;;;;;5.00;2.60;;;18.70;92.10;;;;;;5053423;28;20441;-69
2021/08/29 10:59:29;;;;;;;5.00;2.30;;;18.70;92.20;;;;;;5054029;28;20453;-69
2021/08/29 11:02:11;;;;;;;5.37;2.70;;;18.60;92.40;;;;;;5053833;28;20494;-70
2021/08/29 11:04:49;;;;;;;5.47;2.70;;;18.60;92.50;;;;;;5053512;28;20920;-70
2021/08/29 11:07:43;;;;;;;4.40;3.07;;;18.50;92.40;;;;;;5053784;28;20476;-70
2021/08/29 11:10:11;;;;;;;6.57;3.43;;;18.50;92.60;;;;;;5053575;28;20469;-72
2021/08/29 11:12:39;;;;;;;2.50;1.87;;;18.50;92.70;;;;;;5053539;28;20448;-73
2021/08/29 11:15:08;;;;;;;5.27;2.13;;;18.40;92.70;;;;;;5053854;28;20426;-74
2021/08/29 11:17:37;;;;;;;7.00;3.30;;;18.40;92.70;;;;;;5053720;28;20795;-74
2021/08/29 11:20:16;;;;;;;2.80;2.43;;;18.20;92.40;;;;;;5053621;28;20449;-76
2021/08/29 11:22:45;;;;;;;5.70;2.67;;;18.30;92.70;;;;;;5053317;28;20466;-72
2021/08/29 11:25:18;;;;;;;4.30;2.53;;;18.10;92.80;;;;;;5053216;28;20923;-71
2021/08/29 11:27:57;;;;;;;7.13;3.90;;;18.10;93.20;;;;;;5053645;28;20437;-72
2021/08/29 11:30:27;;;;;;;5.93;3.10;;;18.10;93.40;;;;;;5053503;28;20465;-74
2021/08/29 11:33:00;;;;;;;6.30;2.57;;;18.10;93.40;;;;;;5053438;28;20434;-70
2021/08/29 11:35:30;;;;;;;4.40;2.87;;;18.10;93.40;;;;;;5053567;28;20438;-69
2021/08/29 11:38:04;;;;;;;4.00;3.17;;;18.00;93.40;;;;;;5053446;28;20791;-69
2021/08/29 11:40:47;;;;;;;6.13;3.47;;;18.10;93.70;;;;;;5053169;28;20477;-69
2021/08/29 11:43:15;;;;;;;4.57;2.70;;;18.10;93.80;;;;;;5052972;28;20426;-69
2021/08/29 11:45:44;;;;;;;5.13;3.70;;;18.20;94.00;;;;;;5053021;28;20924;-69
2021/08/29 11:48:12;;;;;;;4.93;3.90;;;18.20;93.80;;;;;;5053145;28;20448;-69
2021/08/29 11:50:40;;;;;;;6.00;3.00;;;18.20;93.90;;;;;;5053075;28;20465;-68
2021/08/29 11:53:07;;;;;;;5.30;3.47;;;18.30;93.80;;;;;;5053252;28;20445;-68
2021/08/29 11:55:33;;;;;;;8.10;3.77;;;18.30;93.70;;;;;;5052890;28;20430;-69
2021/08/29 11:58:00;;;;;;;8.37;3.60;;;18.40;93.50;;;;;;5053586;28;20450;-69
2021/08/29 12:00:28;;;;;;;6.60;3.50;;;18.30;93.40;;;;;;5057324;28;20465;-69
2021/08/29 12:02:55;;;;;;;4.23;2.80;;;18.40;93.50;;;;;;5057263;28;20809;-73
2021/08/29 12:05:23;;;;;;;5.53;3.37;;;18.40;93.60;;;;;;5056967;28;20969;-73
2021/08/29 12:08:02;;;;;;;4.40;3.60;;;18.40;93.60;;;;;;5057169;28;20800;-74
2021/08/29 12:10:29;;;;;;;4.70;3.00;;;18.50;93.50;;;;;;5056978;28;20483;-72
2021/08/29 12:12:56;;;;;;;3.63;2.50;;;18.50;93.70;;;;;;5057208;28;20445;-73
2021/08/29 12:15:25;;;;;;;2.60;2.40;;;18.50;93.70;;;;;;5056978;28;20931;-76
2021/08/29 12:17:56;;;;;;;6.40;3.50;;;18.50;93.90;;;;;;5057378;28;20548;-73
2021/08/29 12:20:24;;;;;;;4.60;3.13;;;18.50;93.50;;;;;;5056566;28;20518;-74
2021/08/29 12:22:53;;;;;;;3.80;2.97;;;18.50;93.60;;;;;;5056713;28;20986;-74
2021/08/29 12:25:23;;;;;;;4.50;2.80;;;18.50;93.60;;;;;;5056913;28;20465;-74
2021/08/29 12:27:51;;;;;;;4.83;3.20;;;18.50;93.60;;;;;;5057353;28;20766;-72
2021/08/29 12:30:19;;;;;;;4.57;3.23;;;18.50;93.80;;;;;;5057041;28;20469;-74
2021/08/29 12:32:46;;;;;;;3.37;2.90;;;18.50;93.90;;;;;;5056739;28;20425;-70
2021/08/29 12:35:13;;;;;;;3.20;2.90;;;18.50;93.90;;;;;;5056287;28;20450;-70
2021/08/29 12:37:43;;;;;;;2.97;2.73;;;18.60;93.80;;;;;;5056453;28;20453;-69
2021/08/29 12:40:15;;;;;;;3.70;2.37;;;18.50;93.80;;;;;;5056758;28;20456;-70
2021/08/29 12:42:44;;;;;;;4.67;3.23;;;18.60;93.90;;;;;;5056926;28;20466;-69
2021/08/29 12:45:12;;;;;;;3.40;3.10;;;18.50;94.00;;;;;;5056489;28;20441;-69
2021/08/29 12:47:40;;;;;;;4.60;2.97;;;18.60;94.10;;;;;;5056586;28;20847;-69
2021/08/29 12:50:10;;;;;;;2.87;2.47;;;18.50;94.10;;;;;;5056558;28;20469;-70